Cottage Lake, Washington
Current Conditions -  °F | °C
As of 9:53 AM on Saturday 20 Dec 2014 (Local Time) from KPAE Reporting Station
Overcast Overcast  
Wind Chill: 40°   Ceiling: 3400
Heat Index: 45°   Visibility: 10mi
Dew Point: 41°   Wind: 9mph
Humidity: 86%   Direction: 150°SSE
Pressure: 29.63"   Gusts: NA
Location:  47.7637°N, 122.118°W
Report Text: KPAE 201753Z 15008KT 10SM SCT017 BKN034 OVC055 07/05 A2963 RMK AO2 SLP036 VIS SE 2 60006 T00720050 10072 20061 55007
Loading
Personal Weather Stations






























Interactive Weather Map New forecast layout! Learn more

10-Day Weather Forecast

Advertisements
Track Severe Weather on mobile